createdAt,value
2023-04-20T00:00:32.679Z,87.60
2023-04-20T00:03:00.315Z,87.40
2023-04-20T00:05:27.637Z,87.50
2023-04-20T00:07:54.782Z,87.50
2023-04-20T00:10:21.558Z,87.40
2023-04-20T00:12:48.297Z,87.70
2023-04-20T00:15:15.212Z,87.60
2023-04-20T00:17:42.028Z,88.00
2023-04-20T00:20:10.009Z,88.10
2023-04-20T00:22:37.137Z,88.00
2023-04-20T00:25:04.036Z,88.00
2023-04-20T00:27:31.036Z,87.90
2023-04-20T00:29:57.806Z,87.90
2023-04-20T00:32:24.715Z,88.30
2023-04-20T00:34:51.482Z,88.20
2023-04-20T00:37:18.173Z,88.30
2023-04-20T00:39:44.938Z,88.60
2023-04-20T00:42:12.026Z,88.70
2023-04-20T00:44:38.755Z,89.20
2023-04-20T00:47:05.856Z,88.90
2023-04-20T00:49:32.751Z,88.80
2023-04-20T00:52:00.869Z,89.00
2023-04-20T00:54:28.826Z,89.30
2023-04-20T00:56:58.034Z,89.10
2023-04-20T00:59:25.520Z,89.60
2023-04-20T01:01:52.354Z,89.70
2023-04-20T01:04:19.423Z,89.80
2023-04-20T01:06:46.363Z,89.80
2023-04-20T01:09:13.253Z,89.90
2023-04-20T01:11:40.402Z,89.60
2023-04-20T01:14:07.471Z,89.10
2023-04-20T01:16:36.766Z,89.30
2023-04-20T01:19:03.885Z,89.30
2023-04-20T01:21:31.121Z,89.40
2023-04-20T01:23:58.401Z,90.10
2023-04-20T01:26:25.885Z,90.60
2023-04-20T01:28:52.866Z,90.60
2023-04-20T01:31:20.068Z,90.70
2023-04-20T01:33:46.933Z,90.50
2023-04-20T01:36:13.911Z,90.60
2023-04-20T01:38:41.188Z,90.80
2023-04-20T01:41:14.830Z,90.60
2023-04-20T01:43:41.654Z,90.50
2023-04-20T01:46:08.407Z,90.50
2023-04-20T01:48:35.416Z,90.50
2023-04-20T01:51:02.257Z,90.20
2023-04-20T01:53:29.347Z,90.50
2023-04-20T01:55:56.115Z,90.50
2023-04-20T01:58:23.124Z,90.20
2023-04-20T02:00:49.931Z,89.70
2023-04-20T02:03:17.301Z,90.20
2023-04-20T02:05:44.679Z,90.20
2023-04-20T02:08:11.503Z,90.50
2023-04-20T02:10:38.474Z,90.40
2023-04-20T02:13:05.226Z,90.80
2023-04-20T02:15:32.028Z,90.70
2023-04-20T02:18:00.784Z,90.50
2023-04-20T02:20:27.904Z,90.50
2023-04-20T02:22:54.744Z,90.30
2023-04-20T02:25:21.893Z,90.40
2023-04-20T02:27:49.448Z,90.60
2023-04-20T02:30:16.466Z,90.80
2023-04-20T02:32:43.546Z,91.20
2023-04-20T02:35:10.539Z,91.20
2023-04-20T02:37:37.252Z,91.30
2023-04-20T02:40:04.904Z,91.10
2023-04-20T02:42:31.650Z,90.90
2023-04-20T02:44:58.348Z,90.60
2023-04-20T02:47:25.183Z,89.80
2023-04-20T02:49:51.897Z,90.10
2023-04-20T02:52:18.822Z,90.70
2023-04-20T02:54:46.236Z,91.00
2023-04-20T02:57:13.161Z,90.80
2023-04-20T02:59:40.573Z,90.70
2023-04-20T03:02:07.368Z,90.90
2023-04-20T03:04:34.465Z,90.70
2023-04-20T03:07:01.473Z,90.70
2023-04-20T03:09:28.281Z,90.70
2023-04-20T03:11:55.011Z,90.70
2023-04-20T03:14:21.744Z,90.90
2023-04-20T03:16:48.574Z,91.00
2023-04-20T03:19:16.095Z,90.90
2023-04-20T03:21:44.660Z,90.90
2023-04-20T03:24:11.377Z,90.90
2023-04-20T03:26:38.153Z,90.90
2023-04-20T03:29:04.951Z,91.10
2023-04-20T03:31:33.080Z,91.10
2023-04-20T03:34:00.218Z,90.80
2023-04-20T03:36:31.883Z,90.70
2023-04-20T03:38:58.633Z,90.60
2023-04-20T03:41:25.492Z,90.80
2023-04-20T03:43:52.237Z,90.70
2023-04-20T03:46:20.413Z,90.80
2023-04-20T03:48:48.210Z,91.20
2023-04-20T03:51:14.997Z,91.20
2023-04-20T03:53:42.162Z,91.10
2023-04-20T03:56:09.626Z,90.80
2023-04-20T03:58:36.419Z,90.90
2023-04-20T04:01:07.129Z,91.20
2023-04-20T04:03:34.994Z,91.10
2023-04-20T04:06:02.485Z,91.10
2023-04-20T04:08:29.343Z,91.30
2023-04-20T04:10:56.102Z,91.20
2023-04-20T04:13:22.825Z,91.20
2023-04-20T04:15:50.383Z,91.10
2023-04-20T04:18:17.577Z,91.20
2023-04-20T04:20:44.336Z,91.30
2023-04-20T04:23:11.651Z,91.20
2023-04-20T04:25:40.264Z,91.20
2023-04-20T04:28:07.293Z,91.30
2023-04-20T04:30:35.011Z,91.50
2023-04-20T04:33:04.636Z,91.50
2023-04-20T04:35:31.792Z,91.50
2023-04-20T04:37:59.160Z,91.50
2023-04-20T04:40:26.095Z,91.50
2023-04-20T04:42:52.824Z,91.50
2023-04-20T04:45:19.776Z,91.30
2023-04-20T04:47:46.575Z,91.60
2023-04-20T04:50:13.480Z,91.70
2023-04-20T04:52:40.271Z,91.40
2023-04-20T04:55:09.195Z,91.20
2023-04-20T04:57:38.511Z,91.30
2023-04-20T05:00:11.692Z,91.30
2023-04-20T05:02:39.871Z,91.00
2023-04-20T05:05:10.077Z,91.00
2023-04-20T05:07:38.230Z,90.90
2023-04-20T05:10:07.207Z,91.30
2023-04-20T05:12:34.285Z,91.10
2023-04-20T05:15:01.868Z,91.10
2023-04-20T05:17:29.884Z,91.20
2023-04-20T05:19:56.767Z,91.40
2023-04-20T05:22:24.523Z,91.40
2023-04-20T05:24:51.254Z,91.10
2023-04-20T05:27:17.993Z,91.00
2023-04-20T05:29:44.773Z,91.00
2023-04-20T05:32:12.140Z,91.00
2023-04-20T05:34:38.874Z,91.00
2023-04-20T05:37:06.125Z,91.20
2023-04-20T05:39:33.721Z,91.20
2023-04-20T05:42:00.483Z,91.20
2023-04-20T05:44:28.108Z,91.00
2023-04-20T05:46:54.823Z,90.90
2023-04-20T05:49:22.012Z,91.10
2023-04-20T05:51:48.797Z,91.50
2023-04-20T05:54:15.629Z,91.10
2023-04-20T05:56:43.197Z,91.30
2023-04-20T05:59:10.551Z,91.60
2023-04-20T06:01:37.274Z,91.20
2023-04-20T06:04:04.276Z,91.10
2023-04-20T06:06:31.505Z,90.80
2023-04-20T06:08:58.323Z,90.60
2023-04-20T06:11:25.249Z,90.20
2023-04-20T06:13:52.032Z,90.10
2023-04-20T06:16:19.235Z,89.90
2023-04-20T06:18:46.134Z,89.70
2023-04-20T06:21:13.064Z,89.60
2023-04-20T06:23:40.807Z,88.90
2023-04-20T06:26:08.920Z,88.50
2023-04-20T06:28:39.089Z,88.50
2023-04-20T06:31:06.319Z,87.80
2023-04-20T06:33:33.296Z,87.60
2023-04-20T06:36:00.241Z,87.40
2023-04-20T06:38:26.991Z,87.10
2023-04-20T06:40:53.733Z,86.90
2023-04-20T06:43:20.854Z,87.90
2023-04-20T06:45:47.563Z,87.20
2023-04-20T06:48:23.949Z,87.30
2023-04-20T06:50:57.689Z,86.70
2023-04-20T06:53:24.995Z,85.30
2023-04-20T06:55:55.516Z,85.50
2023-04-20T06:58:22.265Z,85.50
2023-04-20T07:00:48.971Z,85.60
2023-04-20T07:03:16.352Z,85.70
2023-04-20T07:05:43.264Z,85.20
2023-04-20T07:08:10.225Z,85.00
2023-04-20T07:10:36.966Z,84.20
2023-04-20T07:13:03.700Z,83.90
2023-04-20T07:15:30.477Z,84.10
2023-04-20T07:17:57.231Z,83.40
2023-04-20T07:20:24.180Z,82.60
2023-04-20T07:22:51.119Z,81.90
2023-04-20T07:25:18.093Z,81.70
2023-04-20T07:27:44.873Z,81.60
2023-04-20T07:30:12.189Z,80.50
2023-04-20T07:32:41.243Z,81.40
2023-04-20T07:35:09.134Z,81.00
2023-04-20T07:37:36.187Z,80.40
2023-04-20T07:40:06.475Z,79.40
2023-04-20T07:42:34.789Z,80.00
2023-04-20T07:45:02.009Z,80.40
2023-04-20T07:47:29.961Z,79.50
2023-04-20T07:49:57.583Z,79.90
2023-04-20T07:52:25.933Z,79.50
2023-04-20T07:54:59.660Z,78.50
2023-04-20T07:57:27.187Z,79.00
2023-04-20T07:59:53.991Z,78.40
2023-04-20T08:02:20.961Z,77.30
2023-04-20T08:04:49.766Z,78.60
2023-04-20T08:07:16.813Z,79.20
2023-04-20T08:09:43.602Z,81.20
2023-04-20T08:12:10.376Z,80.10
2023-04-20T08:14:38.222Z,79.60
2023-04-20T08:17:05.024Z,79.30
2023-04-20T08:19:31.775Z,80.40
2023-04-20T08:21:59.064Z,80.40
2023-04-20T08:24:27.080Z,79.10
2023-04-20T08:26:53.850Z,78.60
2023-04-20T08:29:20.893Z,76.50
2023-04-20T08:31:50.656Z,76.70
2023-04-20T08:34:19.049Z,76.40
2023-04-20T08:36:46.889Z,77.10
2023-04-20T08:39:18.473Z,77.60
2023-04-20T08:41:46.742Z,77.90
2023-04-20T08:44:13.670Z,78.60
2023-04-20T08:46:46.358Z,78.30
2023-04-20T08:49:19.107Z,77.80
2023-04-20T08:51:49.089Z,78.50
2023-04-20T08:54:19.127Z,78.50
2023-04-20T08:56:47.713Z,77.40
2023-04-20T08:59:18.386Z,76.80
2023-04-20T09:01:45.449Z,77.20
2023-04-20T09:04:21.696Z,77.30
2023-04-20T09:06:51.501Z,76.50
2023-04-20T09:09:23.362Z,76.90
2023-04-20T09:12:07.907Z,77.00
2023-04-20T09:14:45.723Z,74.70
2023-04-20T09:17:14.614Z,74.50
2023-04-20T09:19:48.355Z,76.00
2023-04-20T09:22:15.065Z,75.30
2023-04-20T09:24:42.727Z,74.70
2023-04-20T09:27:18.237Z,74.90
2023-04-20T09:29:57.164Z,74.20
2023-04-20T09:32:24.713Z,74.00
2023-04-20T09:34:51.568Z,73.70
2023-04-20T09:37:18.741Z,73.10
2023-04-20T09:39:46.644Z,73.50
2023-04-20T09:42:16.646Z,73.40
2023-04-20T09:44:43.826Z,74.60
2023-04-20T09:47:20.738Z,75.10
2023-04-20T09:49:47.772Z,75.70
2023-04-20T09:52:21.109Z,75.00
2023-04-20T09:54:48.528Z,74.80
2023-04-20T09:57:15.385Z,74.50
2023-04-20T09:59:47.378Z,75.40
2023-04-20T10:02:14.859Z,73.30
2023-04-20T10:04:55.076Z,73.10
2023-04-20T10:07:26.685Z,72.70
2023-04-20T10:10:23.903Z,72.50
2023-04-20T10:12:53.037Z,71.20
2023-04-20T10:15:21.890Z,71.40
2023-04-20T10:17:48.993Z,71.00
2023-04-20T10:20:33.789Z,69.60
2023-04-20T10:23:10.288Z,69.50
2023-04-20T10:25:37.626Z,70.10
2023-04-20T10:28:09.421Z,69.60
2023-04-20T10:30:37.665Z,70.00
2023-04-20T10:33:06.529Z,70.30
2023-04-20T10:35:49.439Z,70.20
2023-04-20T10:38:33.061Z,69.40
2023-04-20T10:41:09.917Z,71.00
2023-04-20T10:43:43.169Z,70.70
2023-04-20T10:46:21.736Z,70.30
2023-04-20T10:49:01.606Z,68.30
2023-04-20T10:51:28.640Z,68.80
2023-04-20T10:54:05.896Z,69.40
2023-04-20T10:56:46.986Z,68.00
2023-04-20T10:59:19.568Z,68.80
2023-04-20T11:01:48.132Z,69.10
2023-04-20T11:04:18.355Z,72.20
2023-04-20T11:06:48.178Z,71.40
2023-04-20T11:09:23.535Z,72.90
2023-04-20T11:12:04.094Z,74.10
2023-04-20T11:14:32.614Z,75.30
2023-04-20T11:16:59.910Z,73.10
2023-04-20T11:19:35.749Z,72.80
2023-04-20T11:22:05.183Z,72.30
2023-04-20T11:24:37.452Z,70.60
2023-04-20T11:27:04.896Z,71.00
2023-04-20T11:29:37.932Z,71.10
2023-04-20T11:32:06.982Z,67.70
2023-04-20T11:34:35.821Z,70.00
2023-04-20T11:37:07.732Z,66.60
2023-04-20T11:39:34.992Z,65.70
2023-04-20T11:42:02.448Z,65.60
2023-04-20T11:44:29.468Z,66.30
2023-04-20T11:46:59.746Z,64.60
2023-04-20T11:49:28.888Z,65.30
2023-04-20T11:51:55.885Z,61.80
2023-04-20T11:54:23.900Z,63.60
2023-04-20T11:56:51.028Z,61.80
2023-04-20T11:59:20.140Z,61.00
2023-04-20T12:01:50.275Z,61.30
2023-04-20T12:04:17.729Z,61.30
2023-04-20T12:06:45.148Z,62.10
2023-04-20T12:09:13.393Z,62.90
2023-04-20T12:11:40.336Z,62.40
2023-04-20T12:14:07.957Z,63.60
2023-04-20T12:16:34.826Z,64.30
2023-04-20T12:19:02.152Z,65.60
2023-04-20T12:21:29.344Z,66.40
2023-04-20T12:23:57.750Z,65.10
2023-04-20T12:26:34.851Z,63.70
2023-04-20T12:29:04.459Z,64.00
2023-04-20T12:31:31.956Z,64.00
2023-04-20T12:33:58.853Z,63.60
2023-04-20T12:36:25.806Z,62.90
2023-04-20T12:38:55.696Z,60.70
2023-04-20T12:41:24.554Z,61.40
2023-04-20T12:43:51.849Z,62.80
2023-04-20T12:46:18.949Z,59.20
2023-04-20T12:48:46.078Z,56.50
2023-04-20T12:51:15.164Z,54.00
2023-04-20T12:53:42.658Z,53.80
2023-04-20T12:56:09.431Z,50.10
2023-04-20T12:58:36.149Z,50.80
2023-04-20T13:01:03.554Z,50.80
2023-04-20T13:03:31.193Z,48.60
2023-04-20T13:05:59.011Z,43.40
2023-04-20T13:08:26.039Z,49.00
2023-04-20T13:10:52.802Z,44.50
2023-04-20T13:13:19.597Z,45.80
2023-04-20T13:15:46.364Z,46.20
2023-04-20T13:18:15.353Z,43.90
2023-04-20T13:20:42.075Z,45.90
2023-04-20T13:23:08.826Z,48.20
2023-04-20T13:25:38.223Z,48.80
2023-04-20T13:28:05.616Z,47.20
2023-04-20T13:30:32.746Z,48.40
2023-04-20T13:32:59.501Z,47.70
2023-04-20T13:35:26.518Z,49.60
2023-04-20T13:37:53.270Z,51.10
2023-04-20T13:40:20.299Z,50.60
2023-04-20T13:42:47.522Z,48.70
2023-04-20T13:45:14.308Z,49.10
2023-04-20T13:47:41.280Z,49.90
2023-04-20T13:50:09.029Z,49.30
2023-04-20T13:52:36.065Z,50.10
2023-04-20T13:55:02.899Z,49.70
2023-04-20T13:57:31.613Z,52.00
2023-04-20T13:59:59.125Z,52.70
2023-04-20T14:02:27.249Z,55.40
2023-04-20T14:04:54.090Z,55.60
2023-04-20T14:07:20.832Z,59.00
2023-04-20T14:09:47.648Z,59.20
2023-04-20T14:12:14.519Z,56.90
2023-04-20T14:14:41.267Z,53.40
2023-04-20T14:17:08.454Z,51.90
2023-04-20T14:19:35.340Z,51.30
2023-04-20T14:22:02.050Z,52.90
2023-04-20T14:24:29.238Z,53.90
2023-04-20T14:26:56.708Z,53.90
2023-04-20T14:29:23.981Z,54.90
2023-04-20T14:31:51.965Z,56.70
2023-04-20T14:34:19.002Z,57.50
2023-04-20T14:36:46.246Z,57.50
2023-04-20T14:39:14.537Z,57.70
2023-04-20T14:41:41.612Z,59.10
2023-04-20T14:44:08.413Z,58.80
2023-04-20T14:46:35.734Z,59.70
2023-04-20T14:49:02.991Z,60.00
2023-04-20T14:51:29.887Z,60.70
2023-04-20T14:53:56.835Z,60.00
2023-04-20T14:56:23.961Z,59.30
2023-04-20T14:58:50.898Z,59.30
2023-04-20T15:01:19.971Z,58.60
2023-04-20T15:03:46.958Z,60.80
2023-04-20T15:06:13.890Z,59.10
2023-04-20T15:08:40.932Z,60.70
2023-04-20T15:11:08.253Z,60.60
2023-04-20T15:13:35.269Z,59.30
2023-04-20T15:16:02.070Z,57.80
2023-04-20T15:18:29.022Z,57.00
2023-04-20T15:20:55.853Z,58.20
2023-04-20T15:23:23.012Z,58.30
2023-04-20T15:25:49.928Z,59.20
2023-04-20T15:28:16.780Z,61.20
2023-04-20T15:30:44.326Z,63.40
2023-04-20T15:33:11.232Z,63.10
2023-04-20T15:35:38.705Z,61.10
2023-04-20T15:38:05.516Z,58.30
2023-04-20T15:40:32.703Z,57.50
2023-04-20T15:42:59.585Z,59.90
2023-04-20T15:45:26.365Z,58.00
2023-04-20T15:47:53.270Z,55.90
2023-04-20T15:50:20.617Z,58.10
2023-04-20T15:52:49.741Z,57.60
2023-04-20T15:55:17.044Z,58.10
2023-04-20T15:57:44.723Z,58.80
2023-04-20T16:00:12.450Z,58.30
2023-04-20T16:02:40.155Z,58.80
2023-04-20T16:05:07.892Z,59.10
2023-04-20T16:07:35.194Z,59.10
2023-04-20T16:10:02.979Z,59.20
2023-04-20T16:12:30.386Z,58.90
2023-04-20T16:14:57.353Z,58.80
2023-04-20T16:17:24.309Z,58.10
2023-04-20T16:19:51.104Z,60.00
2023-04-20T16:22:18.117Z,60.80
2023-04-20T16:24:45.029Z,61.00
2023-04-20T16:27:12.085Z,61.40
2023-04-20T16:29:38.808Z,62.00
2023-04-20T16:32:06.200Z,64.10
2023-04-20T16:34:33.293Z,63.20
2023-04-20T16:36:59.991Z,63.10
2023-04-20T16:39:27.196Z,63.30
2023-04-20T16:41:54.203Z,61.70
2023-04-20T16:44:21.500Z,61.20
2023-04-20T16:46:51.052Z,61.00
2023-04-20T16:49:18.484Z,62.50
2023-04-20T16:51:45.242Z,63.20
2023-04-20T16:54:12.717Z,63.80
2023-04-20T16:56:39.895Z,64.20
2023-04-20T16:59:06.792Z,64.50
2023-04-20T17:01:33.597Z,65.70
2023-04-20T17:04:00.765Z,66.70
2023-04-20T17:06:28.156Z,67.60
2023-04-20T17:09:04.976Z,68.00
2023-04-20T17:11:35.757Z,69.00
2023-04-20T17:14:03.339Z,69.60
2023-04-20T17:16:30.327Z,68.60
2023-04-20T17:18:57.395Z,69.00
2023-04-20T17:21:25.664Z,69.50
2023-04-20T17:23:52.381Z,70.90
2023-04-20T17:26:19.222Z,70.60
2023-04-20T17:28:46.405Z,70.60
2023-04-20T17:31:13.257Z,70.20
2023-04-20T17:33:40.024Z,70.50
2023-04-20T17:36:06.846Z,70.60
2023-04-20T17:38:36.508Z,69.90
2023-04-20T17:41:04.833Z,70.20
2023-04-20T17:43:31.660Z,70.40
2023-04-20T17:45:58.692Z,70.60
2023-04-20T17:48:25.602Z,71.30
2023-04-20T17:50:52.491Z,72.30
2023-04-20T17:53:19.622Z,72.90
2023-04-20T17:55:46.662Z,73.80
2023-04-20T17:58:13.372Z,74.50
2023-04-20T18:00:40.594Z,75.10
2023-04-20T18:03:07.813Z,75.00
2023-04-20T18:05:34.681Z,75.70
2023-04-20T18:08:01.643Z,75.70
2023-04-20T18:10:28.611Z,76.00
2023-04-20T18:12:55.453Z,76.30
2023-04-20T18:15:22.587Z,76.50
2023-04-20T18:17:49.504Z,77.00
2023-04-20T18:20:16.335Z,77.10
2023-04-20T18:22:43.109Z,77.40
2023-04-20T18:25:10.009Z,77.50
2023-04-20T18:27:37.544Z,77.60
2023-04-20T18:30:04.823Z,78.00
2023-04-20T18:32:32.958Z,78.00
2023-04-20T18:35:00.244Z,78.00
2023-04-20T18:37:27.043Z,78.30
2023-04-20T18:39:53.800Z,78.50
2023-04-20T18:42:21.285Z,79.00
2023-04-20T18:44:50.933Z,79.00
2023-04-20T18:47:18.909Z,79.20
2023-04-20T18:49:45.635Z,79.40
2023-04-20T18:52:13.978Z,79.40
2023-04-20T18:54:40.788Z,79.50
2023-04-20T18:57:07.882Z,79.50
2023-04-20T18:59:34.658Z,79.50
2023-04-20T19:02:01.488Z,80.10
2023-04-20T19:04:29.624Z,80.20
2023-04-20T19:06:56.397Z,80.20
2023-04-20T19:09:23.153Z,80.50
2023-04-20T19:11:50.798Z,80.40
2023-04-20T19:14:17.773Z,80.50
2023-04-20T19:16:44.863Z,80.60
2023-04-20T19:19:11.886Z,80.70
2023-04-20T19:21:38.633Z,80.80
2023-04-20T19:24:05.724Z,81.30
2023-04-20T19:26:32.500Z,81.30
2023-04-20T19:28:59.730Z,81.50
2023-04-20T19:31:28.434Z,81.70
2023-04-20T19:33:57.111Z,81.80
2023-04-20T19:36:24.068Z,81.90
2023-04-20T19:38:50.827Z,82.30
2023-04-20T19:41:17.781Z,82.30
2023-04-20T19:43:44.520Z,82.00
2023-04-20T19:46:11.681Z,82.10
2023-04-20T19:48:38.502Z,82.60
2023-04-20T19:51:06.603Z,82.50
2023-04-20T19:53:33.942Z,82.60
2023-04-20T19:56:00.777Z,82.40
2023-04-20T19:58:27.648Z,82.40
2023-04-20T20:00:54.560Z,82.70
2023-04-20T20:03:21.679Z,82.70
2023-04-20T20:05:48.825Z,83.00
2023-04-20T20:08:16.518Z,82.70
2023-04-20T20:10:43.913Z,82.30
2023-04-20T20:13:11.015Z,83.60
2023-04-20T20:15:37.813Z,83.60
2023-04-20T20:18:05.117Z,84.00
2023-04-20T20:20:32.296Z,84.00
2023-04-20T20:23:02.239Z,84.00
2023-04-20T20:25:29.853Z,84.30
2023-04-20T20:27:56.585Z,84.60
2023-04-20T20:30:23.386Z,84.70
2023-04-20T20:32:51.140Z,84.70
2023-04-20T20:35:17.905Z,85.10
2023-04-20T20:37:45.163Z,85.40
2023-04-20T20:40:14.763Z,85.60
2023-04-20T20:42:45.135Z,85.60
2023-04-20T20:45:12.940Z,86.10
2023-04-20T20:47:44.259Z,86.10
2023-04-20T20:50:12.917Z,86.20
2023-04-20T20:52:39.757Z,86.40
2023-04-20T20:55:09.102Z,86.30
2023-04-20T20:57:36.562Z,86.10
2023-04-20T21:00:08.345Z,86.50
2023-04-20T21:02:35.596Z,86.60
2023-04-20T21:05:03.220Z,86.70
2023-04-20T21:07:33.520Z,86.50
2023-04-20T21:10:00.776Z,86.80
2023-04-20T21:12:28.190Z,87.10
2023-04-20T21:14:55.378Z,87.30
2023-04-20T21:17:22.324Z,87.80
2023-04-20T21:19:49.049Z,87.90
2023-04-20T21:22:15.881Z,88.20
2023-04-20T21:24:42.617Z,88.20
2023-04-20T21:27:09.874Z,88.10
2023-04-20T21:29:36.650Z,87.80
2023-04-20T21:32:03.608Z,86.90
2023-04-20T21:34:30.632Z,87.60
2023-04-20T21:37:03.575Z,88.00
2023-04-20T21:39:31.938Z,88.30
2023-04-20T21:41:59.669Z,88.00
2023-04-20T21:44:27.447Z,87.60
2023-04-20T21:46:54.274Z,87.40
2023-04-20T21:49:21.346Z,87.70
2023-04-20T21:51:48.266Z,88.40
2023-04-20T21:54:15.471Z,89.10
2023-04-20T21:56:42.597Z,89.50
2023-04-20T21:59:09.379Z,89.40
2023-04-20T22:01:36.123Z,89.70
2023-04-20T22:04:04.051Z,89.40
2023-04-20T22:06:34.401Z,89.50
2023-04-20T22:09:01.771Z,89.80
2023-04-20T22:11:29.509Z,89.50
2023-04-20T22:13:57.283Z,89.10
2023-04-20T22:16:24.316Z,89.50
2023-04-20T22:18:51.246Z,89.00
2023-04-20T22:21:18.007Z,89.10
2023-04-20T22:23:44.699Z,89.20
2023-04-20T22:26:11.430Z,88.60
2023-04-20T22:28:38.118Z,88.70
2023-04-20T22:31:04.905Z,88.70
2023-04-20T22:33:31.633Z,89.10
2023-04-20T22:35:58.365Z,89.30
2023-04-20T22:38:25.259Z,89.20
2023-04-20T22:40:52.037Z,89.70
2023-04-20T22:43:20.095Z,90.30
2023-04-20T22:45:47.055Z,90.40
2023-04-20T22:48:13.760Z,89.80
2023-04-20T22:50:40.593Z,90.00
2023-04-20T22:53:07.632Z,90.00
2023-04-20T22:55:34.376Z,89.80
2023-04-20T22:58:01.113Z,89.80
2023-04-20T23:00:28.084Z,89.80
2023-04-20T23:02:55.060Z,89.90
2023-04-20T23:05:22.867Z,89.70
2023-04-20T23:07:49.708Z,89.30
2023-04-20T23:10:16.547Z,89.60
2023-04-20T23:12:44.548Z,89.50
2023-04-20T23:15:11.938Z,90.20
2023-04-20T23:17:39.702Z,90.10
2023-04-20T23:20:13.794Z,90.30
2023-04-20T23:22:40.945Z,90.50
2023-04-20T23:25:09.552Z,90.30
2023-04-20T23:27:36.657Z,90.50
2023-04-20T23:30:03.537Z,90.60
2023-04-20T23:32:30.655Z,90.50
2023-04-20T23:34:57.506Z,89.90
2023-04-20T23:37:24.342Z,90.00
2023-04-20T23:39:51.209Z,89.60
2023-04-20T23:42:17.961Z,90.20
2023-04-20T23:44:44.697Z,90.00
2023-04-20T23:47:11.487Z,90.30
2023-04-20T23:49:38.705Z,90.60
2023-04-20T23:52:05.868Z,90.70
2023-04-20T23:54:33.349Z,91.30
2023-04-20T23:57:00.502Z,91.30
2023-04-20T23:59:27.217Z,90.90
